Time;durP1;ratioP1;P1;durP2;ratioP2;P2;SDS_P1;SDS_P2;PMS_P1;PMS_P2;Temp;Humidity;BMP_temperature;BMP_pressure;BME280_temperature;BME280_humidity;BME280_pressure;Samples;Min_cycle;Max_cycle;Signal;HPM_P1;HPM_P2
2021/12/27 00:00:21;;;;;;;0.60;0.60;;;;;;;5.28;98.24;95788.56;29395;281;63009;-65
2021/12/27 00:00:53;;;;;;;0.60;0.60;;;;;;;5.27;98.10;95790.44;29395;203;63005;-64
2021/12/27 00:01:27;;;;;;;0.60;0.60;;;;;;;5.27;98.34;95797.69;29395;199;63009;-66
2021/12/27 00:01:58;;;;;;;0.60;0.60;;;;;;;5.27;98.37;95795.81;29395;206;63005;-64
2021/12/27 00:02:29;;;;;;;0.60;0.60;;;;;;;5.28;98.38;95794.72;29395;224;63009;-65
2021/12/27 00:03:01;;;;;;;0.60;0.60;;;;;;;5.29;98.39;95795.53;29394;221;64004;-65
2021/12/27 00:03:33;;;;;;;0.60;0.60;;;;;;;5.28;98.06;95789.34;29395;206;63009;-64
2021/12/27 00:04:05;;;;;;;0.57;0.57;;;;;;;5.30;98.05;95789.88;29395;272;63004;-56
2021/12/27 00:04:36;;;;;;;0.60;0.60;;;;;;;5.29;98.40;95793.66;29394;269;64009;-65
2021/12/27 00:05:08;;;;;;;0.60;0.60;;;;;;;5.30;98.03;95795.25;29395;265;63004;-65
2021/12/27 00:05:39;;;;;;;0.60;0.60;;;;;;;5.31;98.25;95783.41;29395;196;63008;-65
2021/12/27 00:06:11;;;;;;;0.60;0.60;;;;;;;5.32;98.05;95784.22;29395;204;63005;-65
2021/12/27 00:06:45;;;;;;;0.60;0.60;;;;;;;5.32;98.32;95787.69;29395;263;63009;-65
2021/12/27 00:07:16;;;;;;;0.60;0.60;;;;;;;5.31;98.05;95788.78;29395;226;63005;-65
2021/12/27 00:07:50;;;;;;;0.52;0.52;;;;;;;5.31;98.22;95790.66;29394;276;64009;-66
2021/12/27 00:08:23;;;;;;;0.60;0.60;;;;;;;5.31;98.25;95794.16;29395;259;63005;-66
2021/12/27 00:08:54;;;;;;;0.60;0.60;;;;;;;5.32;98.08;95790.38;29394;239;64009;-65
2021/12/27 00:09:26;;;;;;;0.57;0.57;;;;;;;5.35;98.03;95791.72;29395;202;63005;-65
2021/12/27 00:09:57;;;;;;;0.60;0.60;;;;;;;5.38;98.23;95783.06;29395;259;63009;-66
2021/12/27 00:10:28;;;;;;;0.50;0.50;;;;;;;5.39;98.05;95785.47;29395;202;63004;-66
2021/12/27 00:11:00;;;;;;;0.60;0.60;;;;;;;5.39;98.02;95785.47;29395;218;63009;-65
2021/12/27 00:11:31;;;;;;;0.60;0.60;;;;;;;5.37;97.71;95787.66;29395;269;63004;-65
2021/12/27 00:12:03;;;;;;;0.60;0.60;;;;;;;5.38;97.94;95783.06;29395;254;63009;-64
2021/12/27 00:12:35;;;;;;;0.60;0.60;;;;;;;5.37;97.62;95793.03;29395;208;63004;-65
2021/12/27 00:13:07;;;;;;;0.60;0.60;;;;;;;5.38;97.79;95783.06;29395;275;63004;-66
2021/12/27 00:13:39;;;;;;;0.60;0.60;;;;;;;5.39;97.92;95785.47;29394;213;64005;-65
2021/12/27 00:14:10;;;;;;;0.60;0.60;;;;;;;5.35;97.94;95779.06;29395;273;63009;-66
2021/12/27 00:14:42;;;;;;;0.60;0.60;;;;;;;5.38;97.57;95783.88;29395;227;63005;-65
2021/12/27 00:15:16;;;;;;;0.60;0.60;;;;;;;5.38;97.87;95778.50;29395;214;63016;-56
2021/12/27 00:15:49;;;;;;;0.60;0.60;;;;;;;5.38;97.58;95778.50;29395;222;63005;-56
2021/12/27 00:16:20;;;;;;;0.60;0.60;;;;;;;5.38;97.88;95773.09;29395;248;63009;-63
2021/12/27 00:16:51;;;;;;;0.60;0.60;;;;;;;5.36;97.93;95777.97;29395;197;63004;-57
2021/12/27 00:17:22;;;;;;;0.60;0.60;;;;;;;5.35;97.84;95781.75;29395;236;63009;-55
2021/12/27 00:17:54;;;;;;;0.60;0.60;;;;;;;5.36;97.58;95786.03;29396;202;63004;-55
2021/12/27 00:18:26;;;;;;;0.60;0.60;;;;;;;5.35;97.90;95784.44;29394;321;64009;-54
2021/12/27 00:18:58;;;;;;;0.60;0.60;;;;;;;5.35;97.63;95784.44;29395;234;63004;-56
2021/12/27 00:19:29;;;;;;;0.60;0.60;;;;;;;5.34;98.02;95777.47;29395;214;63008;-63
2021/12/27 00:20:00;;;;;;;0.60;0.60;;;;;;;5.33;97.87;95781.22;29395;262;63004;-63
2021/12/27 00:20:32;;;;;;;0.60;0.60;;;;;;;5.29;98.05;95777.50;29395;209;63008;-66
2021/12/27 00:21:04;;;;;;;0.50;0.50;;;;;;;5.32;98.07;95779.63;29394;274;64005;-63
2021/12/27 00:21:35;;;;;;;0.60;0.60;;;;;;;5.32;97.70;95778.81;29395;214;63009;-64
2021/12/27 00:22:07;;;;;;;0.60;0.60;;;;;;;5.32;97.79;95774.25;29395;244;63005;-63
2021/12/27 00:22:38;;;;;;;0.60;0.60;;;;;;;5.31;97.89;95778.03;29395;287;63009;-54
2021/12/27 00:23:09;;;;;;;0.60;0.60;;;;;;;5.32;97.86;95781.50;29395;197;63005;-65
2021/12/27 00:23:41;;;;;;;0.50;0.50;;;;;;;5.32;98.21;95776.94;29395;203;63009;-65
2021/12/27 00:24:12;;;;;;;0.60;0.60;;;;;;;5.32;97.89;95774.25;29395;196;63004;-63
2021/12/27 00:24:47;;;;;;;0.50;0.50;;;;;;;5.32;98.23;95773.44;29395;270;63009;-64
2021/12/27 00:25:19;;;;;;;0.60;0.60;;;;;;;5.32;98.11;95774.25;29395;273;63004;-63
2021/12/27 00:25:51;;;;;;;0.60;0.60;;;;;;;5.31;98.14;95778.03;29395;254;63009;-64
2021/12/27 00:26:23;;;;;;;0.60;0.60;;;;;;;5.30;98.15;95781.81;29394;229;64004;-54
2021/12/27 00:26:55;;;;;;;0.60;0.60;;;;;;;5.32;98.16;95782.31;29394;274;64008;-63
2021/12/27 00:27:27;;;;;;;0.60;0.60;;;;;;;5.32;98.30;95781.50;29394;202;63996;-64
2021/12/27 00:28:03;;;;;;;0.60;0.60;;;;;;;5.31;98.15;95772.66;29395;285;63009;-65
2021/12/27 00:28:35;;;;;;;0.60;0.60;;;;;;;5.31;98.10;95779.91;29395;199;63005;-65
2021/12/27 00:29:09;;;;;;;0.57;0.57;;;;;;;5.30;98.45;95776.41;29394;260;64009;-64
2021/12/27 00:29:44;;;;;;;0.50;0.50;;;;;;;5.31;98.10;95777.22;29395;253;63005;-64
2021/12/27 00:30:20;;;;;;;0.60;0.60;;;;;;;5.30;98.38;95776.41;29395;199;63009;-55
2021/12/27 00:30:52;;;;;;;0.60;0.60;;;;;;;5.31;98.07;95775.34;29395;202;63008;-56
2021/12/27 00:31:25;;;;;;;0.60;0.60;;;;;;;5.30;98.42;95779.09;29395;238;63009;-55
2021/12/27 00:31:57;;;;;;;0.60;0.60;;;;;;;5.31;98.37;95779.91;29395;250;63004;-65
2021/12/27 00:32:28;;;;;;;0.60;0.60;;;;;;;5.32;98.47;95774.25;29395;209;63009;-55
2021/12/27 00:33:00;;;;;;;0.60;0.60;;;;;;;5.32;98.24;95768.06;29395;279;63004;-65
2021/12/27 00:33:31;;;;;;;0.60;0.60;;;;;;;5.33;98.18;95767.78;29395;198;63014;-65
2021/12/27 00:34:04;;;;;;;0.60;0.60;;;;;;;5.33;98.50;95775.84;29394;202;64004;-64
2021/12/27 00:34:38;;;;;;;0.60;0.60;;;;;;;5.35;98.35;95762.91;29395;226;63008;-63
2021/12/27 00:35:13;;;;;;;0.60;0.60;;;;;;;5.38;98.09;95775.81;29395;249;63005;-65
2021/12/27 00:35:46;;;;;;;0.60;0.60;;;;;;;5.38;98.22;95769.63;29395;197;63009;-64
2021/12/27 00:36:18;;;;;;;0.60;0.60;;;;;;;5.35;97.83;95757.53;29395;217;63020;-56
2021/12/27 00:36:49;;;;;;;0.57;0.57;;;;;;;5.35;97.82;95770.19;29394;232;64009;-55
2021/12/27 00:37:21;;;;;;;0.60;0.60;;;;;;;5.35;97.87;95773.69;29394;209;64005;-65
2021/12/27 00:37:53;;;;;;;0.50;0.50;;;;;;;5.35;97.97;95771.00;29395;196;63009;-65
2021/12/27 00:38:26;;;;;;;0.50;0.50;;;;;;;5.36;97.87;95775.28;29395;206;63005;-64
2021/12/27 00:38:57;;;;;;;0.60;0.60;;;;;;;5.37;98.01;95770.69;29395;231;63009;-64
2021/12/27 00:39:29;;;;;;;0.60;0.60;;;;;;;5.37;97.67;95773.41;29395;219;63007;-64
2021/12/27 00:40:01;;;;;;;0.57;0.57;;;;;;;5.38;97.58;95769.63;29395;205;63009;-63
2021/12/27 00:40:32;;;;;;;0.60;0.60;;;;;;;5.37;97.93;95765.31;29394;235;64004;-67
2021/12/27 00:41:04;;;;;;;0.60;0.60;;;;;;;5.37;97.94;95766.13;29395;286;63009;-63
2021/12/27 00:41:36;;;;;;;0.60;0.60;;;;;;;5.36;97.49;95769.91;29395;224;63004;-63
2021/12/27 00:42:08;;;;;;;0.52;0.52;;;;;;;5.35;97.83;95768.31;29395;196;63012;-66
2021/12/27 00:42:40;;;;;;;0.60;0.60;;;;;;;5.36;97.85;95769.91;29394;231;64005;-65
2021/12/27 00:43:11;;;;;;;0.50;0.50;;;;;;;5.36;97.51;95769.91;29395;248;63009;-66
2021/12/27 00:43:42;;;;;;;0.50;0.50;;;;;;;5.36;97.54;95764.53;29395;287;63008;-64
2021/12/27 00:44:13;;;;;;;0.60;0.60;;;;;;;5.36;97.65;95769.09;29395;269;63009;-65
2021/12/27 00:44:44;;;;;;;0.60;0.60;;;;;;;5.36;97.81;95767.22;29395;219;63005;-63
2021/12/27 00:45:16;;;;;;;0.57;0.57;;;;;;;5.39;97.87;95768.53;29395;202;63009;-64
2021/12/27 00:45:48;;;;;;;0.60;0.60;;;;;;;5.36;97.76;95766.41;29395;241;63005;-64
2021/12/27 00:46:19;;;;;;;0.60;0.60;;;;;;;5.42;97.48;95772.53;29395;229;63009;-54
2021/12/27 00:46:50;;;;;;;0.60;0.60;;;;;;;5.43;97.37;95779.53;29395;207;63004;-55
2021/12/27 00:47:21;;;;;;;0.60;0.60;;;;;;;5.38;97.18;95767.72;29395;221;63015;-65
2021/12/27 00:47:54;;;;;;;0.50;0.50;;;;;;;5.41;97.42;95774.44;29394;236;64004;-65
2021/12/27 00:48:25;;;;;;;0.60;0.60;;;;;;;5.45;97.13;95770.06;29395;239;63009;-65
2021/12/27 00:48:56;;;;;;;0.60;0.60;;;;;;;5.45;97.38;95777.34;29394;271;64004;-65
2021/12/27 00:49:28;;;;;;;0.60;0.60;;;;;;;5.42;97.27;95769.84;29395;235;63008;-66
2021/12/27 00:49:59;;;;;;;0.50;0.50;;;;;;;5.42;97.22;95772.53;29395;210;63004;-61
2021/12/27 00:50:31;;;;;;;0.60;0.60;;;;;;;5.42;97.17;95772.53;29395;203;63019;-65
2021/12/27 00:51:03;;;;;;;0.60;0.60;;;;;;;5.39;97.14;95769.34;29395;236;63005;-65
2021/12/27 00:51:34;;;;;;;0.60;0.60;;;;;;;5.41;96.87;95771.75;29394;240;64009;-65
2021/12/27 00:52:06;;;;;;;0.50;0.50;;;;;;;5.44;96.79;95778.44;29395;266;63005;-65
2021/12/27 00:52:38;;;;;;;0.60;0.60;;;;;;;5.42;97.02;95775.22;29394;264;64009;-65
2021/12/27 00:53:09;;;;;;;0.60;0.60;;;;;;;5.42;96.65;95772.53;29395;225;63005;-55
2021/12/27 00:53:40;;;;;;;0.60;0.60;;;;;;;5.43;97.04;95777.63;29395;291;63009;-66
2021/12/27 00:54:11;;;;;;;0.50;0.50;;;;;;;5.45;96.69;95777.34;29395;216;63005;-64
2021/12/27 00:54:43;;;;;;;0.60;0.60;;;;;;;5.43;97.01;95776.84;29395;210;63009;-55
2021/12/27 00:55:17;;;;;;;0.60;0.60;;;;;;;5.43;96.85;95776.84;29395;221;63004;-64
2021/12/27 00:55:49;;;;;;;0.60;0.60;;;;;;;5.43;97.02;95774.94;29395;312;63009;-54
2021/12/27 00:56:20;;;;;;;0.60;0.60;;;;;;;5.43;96.76;95774.12;29395;256;63004;-65
2021/12/27 00:56:51;;;;;;;0.60;0.60;;;;;;;5.43;96.52;95776.84;29395;204;63009;-65
2021/12/27 00:57:22;;;;;;;0.50;0.50;;;;;;;5.42;96.67;95772.53;29394;272;64004;-64
2021/12/27 00:57:54;;;;;;;0.50;0.50;;;;;;;5.41;96.87;95777.13;29395;205;63009;-64
2021/12/27 00:58:25;;;;;;;0.57;0.57;;;;;;;5.41;96.93;95779.00;29394;225;64005;-66
2021/12/27 00:58:56;;;;;;;0.60;0.60;;;;;;;5.41;96.72;95781.69;29395;281;63009;-67
2021/12/27 00:59:27;;;;;;;0.50;0.50;;;;;;;5.38;96.94;95775.81;29395;241;63005;-65
2021/12/27 01:00:03;;;;;;;0.50;0.50;;;;;;;5.38;96.66;95778.50;29394;209;64009;-65
2021/12/27 01:00:35;;;;;;;0.60;0.60;;;;;;;5.37;96.85;95771.50;29395;246;63005;-66
2021/12/27 01:01:06;;;;;;;0.57;0.57;;;;;;;5.37;96.92;95776.88;29395;225;63009;-65
2021/12/27 01:01:38;;;;;;;0.60;0.60;;;;;;;5.38;96.78;95773.09;29395;224;63005;-65
2021/12/27 01:02:09;;;;;;;0.50;0.50;;;;;;;5.38;97.09;95772.31;29395;274;63009;-55
2021/12/27 01:02:41;;;;;;;0.50;0.50;;;;;;;5.38;96.88;95773.09;29395;262;63004;-65
2021/12/27 01:03:12;;;;;;;0.60;0.60;;;;;;;5.39;97.12;95774.72;29395;260;63009;-64
2021/12/27 01:03:43;;;;;;;0.50;0.50;;;;;;;5.39;96.81;95774.72;29395;205;63004;-65
2021/12/27 01:04:15;;;;;;;0.60;0.60;;;;;;;5.37;97.06;95776.88;29394;276;64009;-66
2021/12/27 01:04:46;;;;;;;0.50;0.50;;;;;;;5.34;96.64;95766.69;29395;197;63004;-66
2021/12/27 01:05:17;;;;;;;0.60;0.60;;;;;;;5.34;97.09;95777.47;29395;275;63009;-55
2021/12/27 01:05:49;;;;;;;0.60;0.60;;;;;;;5.34;97.07;95772.06;29395;334;63005;-63
2021/12/27 01:06:20;;;;;;;0.55;0.55;;;;;;;5.34;97.16;95772.06;29395;208;63027;-64
2021/12/27 01:06:51;;;;;;;0.50;0.50;;;;;;;5.34;96.92;95772.06;29394;198;64005;-55
2021/12/27 01:07:22;;;;;;;0.60;0.60;;;;;;;5.35;97.20;95772.88;29395;245;63009;-65
2021/12/27 01:07:55;;;;;;;0.50;0.50;;;;;;;5.35;97.08;95778.25;29395;211;63005;-66
2021/12/27 01:08:26;;;;;;;0.50;0.50;;;;;;;5.31;97.12;95772.66;29395;280;63009;-55
2021/12/27 01:08:59;;;;;;;0.50;0.50;;;;;;;5.32;96.75;95779.63;29395;280;63004;-66
2021/12/27 01:09:47;;;;;;;0.60;0.60;;;;;;;5.31;96.97;95780.72;29395;229;63009;-65
2021/12/27 01:13:17;;;;;;;0.50;0.50;;;;;;;5.27;96.87;95771.63;29394;221;64009;-65
2021/12/27 01:14:02;;;;;;;0.60;0.60;;;;;;;5.26;97.11;95772.69;29395;209;63005;-65
2021/12/27 01:14:54;;;;;;;0.60;0.60;;;;;;;5.25;97.30;95764.91;29395;221;63009;-66
2021/12/27 01:16:31;;;;;;;0.60;0.60;;;;;;;5.24;97.00;95772.19;29396;206;63009;-63
2021/12/27 01:17:04;;;;;;;0.60;0.60;;;;;;;5.22;97.02;95774.34;29395;266;63004;-66
2021/12/27 01:17:38;;;;;;;0.60;0.60;;;;;;;5.19;97.29;95777.66;29395;218;63015;-56
2021/12/27 01:18:09;;;;;;;0.60;0.60;;;;;;;5.22;97.10;95782.41;29394;211;64004;-63
2021/12/27 01:18:48;;;;;;;0.52;0.52;;;;;;;5.23;97.45;95778.66;29395;263;63009;-55
2021/12/27 01:19:19;;;;;;;0.60;0.60;;;;;;;5.27;97.12;95777.00;29395;202;63004;-66
2021/12/27 01:19:50;;;;;;;0.60;0.60;;;;;;;5.26;97.17;95775.38;29395;312;63015;-55
2021/12/27 01:20:24;;;;;;;0.60;0.60;;;;;;;5.26;96.91;95778.06;29395;207;63005;-65
2021/12/27 01:20:55;;;;;;;0.60;0.60;;;;;;;5.25;97.22;95779.16;29394;202;64009;-66
2021/12/27 01:21:27;;;;;;;0.60;0.60;;;;;;;5.24;96.83;95777.56;29395;204;63005;-64
2021/12/27 01:21:58;;;;;;;0.60;0.60;;;;;;;5.23;97.26;95786.72;29395;263;63009;-55
2021/12/27 01:22:32;;;;;;;0.50;0.50;;;;;;;5.24;96.92;95782.12;29395;290;63005;-64
2021/12/27 01:23:04;;;;;;;0.60;0.60;;;;;;;5.20;97.18;95781.91;29395;204;63009;-65
2021/12/27 01:23:36;;;;;;;0.60;0.60;;;;;;;5.20;97.02;95776.53;29395;208;63005;-64
2021/12/27 01:24:08;;;;;;;0.60;0.60;;;;;;;5.20;97.36;95779.22;29395;219;63009;-55
2021/12/27 01:24:40;;;;;;;0.60;0.60;;;;;;;5.19;97.03;95780.34;29395;202;63018;-66
2021/12/27 01:25:12;;;;;;;0.60;0.60;;;;;;;5.18;97.17;95784.09;29395;214;63009;-65
2021/12/27 01:25:44;;;;;;;0.60;0.60;;;;;;;5.21;97.41;95780.81;29395;274;63004;-65
2021/12/27 01:26:16;;;;;;;0.50;0.50;;;;;;;5.21;97.40;95780.03;29394;210;64008;-66
2021/12/27 01:26:47;;;;;;;0.60;0.60;;;;;;;5.21;97.39;95780.81;29395;226;63004;-64
2021/12/27 01:27:18;;;;;;;0.60;0.60;;;;;;;5.19;97.23;95780.34;29395;205;63009;-64
2021/12/27 01:27:51;;;;;;;0.57;0.57;;;;;;;5.19;97.21;95774.16;29395;286;63005;-66
2021/12/27 01:28:23;;;;;;;0.60;0.60;;;;;;;5.18;97.55;95777.94;29395;270;63009;-64
2021/12/27 01:29:00;;;;;;;0.60;0.60;;;;;;;5.18;97.16;95773.34;29395;206;63005;-65
2021/12/27 01:29:31;;;;;;;0.60;0.60;;;;;;;5.18;97.64;95778.72;29395;281;63009;-65
2021/12/27 01:30:05;;;;;;;0.60;0.60;;;;;;;5.18;97.27;95778.72;29395;208;63005;-66
2021/12/27 01:30:37;;;;;;;0.60;0.60;;;;;;;5.19;97.56;95774.16;29395;216;63009;-64
2021/12/27 01:31:10;;;;;;;0.60;0.60;;;;;;;5.18;97.40;95777.94;29395;267;63005;-64
2021/12/27 01:31:41;;;;;;;0.60;0.60;;;;;;;5.18;97.30;95776.03;29394;216;64009;-65
2021/12/27 01:32:12;;;;;;;0.60;0.60;;;;;;;5.19;97.46;95766.09;29395;222;63004;-65
2021/12/27 01:32:48;;;;;;;0.60;0.60;;;;;;;5.19;97.66;95774.16;29395;239;63009;-65
2021/12/27 01:33:22;;;;;;;0.60;0.60;;;;;;;5.20;97.59;95781.13;29395;231;63004;-65
2021/12/27 01:33:54;;;;;;;0.60;0.60;;;;;;;5.20;97.42;95776.53;29395;325;63008;-65
2021/12/27 01:34:26;;;;;;;0.60;0.60;;;;;;;5.20;97.70;95776.53;29395;338;63004;-65
2021/12/27 01:34:57;;;;;;;0.60;0.60;;;;;;;5.19;97.65;95774.94;29395;225;63009;-66
2021/12/27 01:35:29;;;;;;;0.60;0.60;;;;;;;5.19;97.24;95774.16;29395;209;63001;-65
2021/12/27 01:36:03;;;;;;;0.60;0.60;;;;;;;5.18;97.42;95767.97;29395;224;63009;-65
2021/12/27 01:36:35;;;;;;;0.60;0.60;;;;;;;5.20;97.27;95773.06;29395;253;63005;-65
2021/12/27 01:37:06;;;;;;;0.60;0.60;;;;;;;5.19;97.16;95772.25;29394;392;64009;-66
2021/12/27 01:37:38;;;;;;;0.60;0.60;;;;;;;5.19;97.34;95774.94;29395;228;63005;-66
2021/12/27 01:38:11;;;;;;;0.50;0.50;;;;;;;5.26;96.96;95775.38;29395;223;63009;-64
2021/12/27 01:38:45;;;;;;;0.50;0.50;;;;;;;5.26;97.09;95775.38;29394;226;64005;-66
2021/12/27 01:39:16;;;;;;;0.60;0.60;;;;;;;5.26;97.03;95774.59;29394;362;64009;-65
2021/12/27 01:39:47;;;;;;;0.60;0.60;;;;;;;5.31;96.80;95769.97;29395;203;63004;-64
2021/12/27 01:40:23;;;;;;;0.60;0.60;;;;;;;5.29;96.33;95768.63;29395;230;63009;-64
2021/12/27 01:40:57;;;;;;;0.60;0.60;;;;;;;5.29;96.27;95777.50;29395;246;63004;-65
2021/12/27 01:41:29;;;;;;;0.60;0.60;;;;;;;5.27;96.47;95777.00;29395;204;63008;-65
2021/12/27 01:42:01;;;;;;;0.60;0.60;;;;;;;5.25;96.25;95772.97;29395;219;63004;-66
2021/12/27 01:42:32;;;;;;;0.60;0.60;;;;;;;5.23;96.59;95781.34;29395;262;63016;-65
2021/12/27 01:43:13;;;;;;;0.55;0.55;;;;;;;5.22;96.44;95777.03;29395;230;63005;-65
2021/12/27 01:43:45;;;;;;;0.60;0.60;;;;;;;5.20;96.55;95781.91;29417;283;63009;-65
2021/12/27 01:44:16;;;;;;;0.60;0.60;;;;;;;5.20;96.34;95781.91;29394;216;64005;-64
2021/12/27 01:44:47;;;;;;;0.60;0.60;;;;;;;5.19;96.80;95785.72;29395;247;63009;-64
2021/12/27 01:45:24;;;;;;;0.60;0.60;;;;;;;5.18;96.50;95789.47;29395;197;63005;-63
2021/12/27 01:45:59;;;;;;;0.55;0.55;;;;;;;5.18;96.82;95783.31;29394;209;64009;-63
2021/12/27 01:46:31;;;;;;;0.50;0.50;;;;;;;5.17;96.59;95781.69;29395;218;63004;-54
2021/12/27 01:47:03;;;;;;;0.60;0.60;;;;;;;5.17;96.90;95779.81;29395;219;63009;-65
2021/12/27 01:47:34;;;;;;;0.60;0.60;;;;;;;5.17;96.93;95779.81;29395;232;63004;-56
2021/12/27 01:48:07;;;;;;;0.50;0.50;;;;;;;5.15;97.01;95784.69;29395;248;63009;-65
2021/12/27 01:48:42;;;;;;;0.60;0.60;;;;;;;5.14;96.80;95777.69;29395;208;63004;-64
2021/12/27 01:49:13;;;;;;;0.50;0.50;;;;;;;5.14;96.95;95783.06;29395;288;63008;-65
2021/12/27 01:49:44;;;;;;;0.60;0.60;;;;;;;5.13;96.69;95781.47;29395;229;63005;-65
2021/12/27 01:50:16;;;;;;;0.60;0.60;;;;;;;5.14;96.96;95782.25;29395;227;63009;-67
2021/12/27 01:50:48;;;;;;;0.50;0.50;;;;;;;5.13;96.82;95781.47;29395;270;63005;-66
2021/12/27 01:51:20;;;;;;;0.60;0.60;;;;;;;5.12;96.85;95777.19;29394;205;64024;-65
2021/12/27 01:51:51;;;;;;;0.60;0.60;;;;;;;5.13;97.19;95780.66;29395;203;63005;-66
2021/12/27 01:52:22;;;;;;;0.60;0.60;;;;;;;5.12;96.92;95779.88;29395;266;63009;-65
2021/12/27 01:52:54;;;;;;;0.60;0.60;;;;;;;5.13;97.07;95775.28;29395;200;63005;-64
2021/12/27 01:53:29;;;;;;;0.55;0.55;;;;;;;5.14;96.86;95782.25;29395;213;63009;-64
2021/12/27 01:54:01;;;;;;;0.50;0.50;;;;;;;5.13;96.77;95776.09;29395;204;63004;-64
2021/12/27 01:54:32;;;;;;;0.52;0.52;;;;;;;5.15;96.75;95781.19;29395;209;63009;-65
2021/12/27 01:55:05;;;;;;;0.60;0.60;;;;;;;5.14;96.63;95779.56;29395;198;63010;-65
2021/12/27 01:55:37;;;;;;;0.60;0.60;;;;;;;5.17;96.68;95776.31;29395;205;63009;-65
2021/12/27 01:56:10;;;;;;;0.60;0.60;;;;;;;5.18;96.76;95783.31;29394;246;64004;-65
2021/12/27 01:56:41;;;;;;;0.60;0.60;;;;;;;5.17;96.39;95785.19;29395;247;63008;-64
2021/12/27 01:57:13;;;;;;;0.60;0.60;;;;;;;5.15;96.31;95779.28;29395;205;63004;-65
2021/12/27 01:57:44;;;;;;;0.60;0.60;;;;;;;5.14;96.73;95783.06;29395;203;63009;-66
2021/12/27 01:58:16;;;;;;;0.60;0.60;;;;;;;5.14;96.57;95771.50;29395;216;63001;-65
2021/12/27 01:58:49;;;;;;;0.60;0.60;;;;;;;5.12;96.43;95779.88;29395;223;63009;-64
2021/12/27 01:59:20;;;;;;;0.60;0.60;;;;;;;5.10;96.49;95779.34;29395;208;63005;-66
2021/12/27 01:59:51;;;;;;;0.60;0.60;;;;;;;5.15;96.54;95778.50;29395;289;63023;-63
2021/12/27 02:00:23;;;;;;;0.60;0.60;;;;;;;5.15;96.69;95784.69;29394;247;64005;-65
2021/12/27 02:00:57;;;;;;;0.60;0.60;;;;;;;5.16;96.59;95780.91;29395;203;63009;-65
2021/12/27 02:01:29;;;;;;;0.60;0.60;;;;;;;5.15;96.33;95773.91;29395;203;63003;-66
2021/12/27 02:02:00;;;;;;;0.60;0.60;;;;;;;5.15;96.24;95775.81;29395;205;63018;-65
2021/12/27 02:02:32;;;;;;;0.60;0.60;;;;;;;5.16;96.46;95780.91;29395;204;63004;-55
2021/12/27 02:03:04;;;;;;;0.60;0.60;;;;;;;5.15;96.35;95778.50;29395;197;63009;-67
2021/12/27 02:03:38;;;;;;;0.60;0.60;;;;;;;5.14;96.24;95780.38;29395;222;63004;-64
2021/12/27 02:04:09;;;;;;;0.60;0.60;;;;;;;5.14;96.23;95776.88;29395;254;63008;-64
2021/12/27 02:04:40;;;;;;;0.50;0.50;;;;;;;5.13;95.99;95775.28;29395;215;63004;-65
2021/12/27 02:05:12;;;;;;;0.50;0.50;;;;;;;5.12;96.22;95774.47;29394;243;64009;-64
2021/12/27 02:05:44;;;;;;;0.50;0.50;;;;;;;5.10;96.22;95771.28;29394;242;64005;-65
2021/12/27 02:06:15;;;;;;;0.52;0.52;;;;;;;5.09;96.38;95780.44;29394;220;64009;-65
2021/12/27 02:06:47;;;;;;;0.60;0.60;;;;;;;5.08;96.38;95775.34;29395;282;63005;-66
2021/12/27 02:07:18;;;;;;;0.50;0.50;;;;;;;5.07;96.13;95776.41;29394;290;64009;-65
2021/12/27 02:07:49;;;;;;;0.50;0.50;;;;;;;5.05;96.31;95774.81;29395;279;63010;-65
2021/12/27 02:08:21;;;;;;;0.60;0.60;;;;;;;5.04;96.52;95770.53;29395;310;63009;-64
2021/12/27 02:08:53;;;;;;;0.60;0.60;;;;;;;5.07;96.28;95769.16;29395;220;63005;-64
2021/12/27 02:09:33;;;;;;;0.60;0.60;;;;;;;5.07;96.59;95766.47;29395;236;63009;-63
2021/12/27 02:10:05;;;;;;;0.60;0.60;;;;;;;5.07;96.70;95771.84;29417;242;63004;-64
2021/12/27 02:10:38;;;;;;;0.60;0.60;;;;;;;5.06;96.60;95770.25;29395;196;63009;-64
2021/12/27 02:11:12;;;;;;;0.60;0.60;;;;;;;5.10;96.35;95770.47;29395;222;63008;-62
2021/12/27 02:11:46;;;;;;;0.50;0.50;;;;;;;5.12;96.40;95768.31;29395;273;63008;-55
2021/12/27 02:12:18;;;;;;;0.60;0.60;;;;;;;5.11;96.42;95770.19;29394;205;64004;-64
2021/12/27 02:12:51;;;;;;;0.60;0.60;;;;;;;5.11;96.28;95764.00;29395;239;63009;-65
2021/12/27 02:13:23;;;;;;;0.60;0.60;;;;;;;5.08;95.96;95767.28;29395;203;63005;-64
2021/12/27 02:13:55;;;;;;;0.50;0.50;;;;;;;5.06;96.19;95762.19;29395;212;63009;-64
2021/12/27 02:14:26;;;;;;;0.60;0.60;;;;;;;5.10;96.00;95763.22;29395;243;63005;-63
2021/12/27 02:14:58;;;;;;;0.50;0.50;;;;;;;5.12;96.25;95758.34;29395;250;63026;-64
2021/12/27 02:15:30;;;;;;;0.60;0.60;;;;;;;5.16;95.78;95754.00;29395;213;63005;-63
2021/12/27 02:16:01;;;;;;;0.50;0.50;;;;;;;5.16;95.78;95759.38;29394;226;64009;-65
2021/12/27 02:16:35;;;;;;;0.60;0.60;;;;;;;5.15;95.58;95757.78;29395;275;63004;-65
2021/12/27 02:17:06;;;;;;;0.50;0.50;;;;;;;5.14;95.74;95755.37;29395;218;63009;-65
2021/12/27 02:17:40;;;;;;;0.60;0.60;;;;;;;5.12;95.40;95752.97;29394;205;64004;-65
2021/12/27 02:18:11;;;;;;;0.60;0.60;;;;;;;5.12;95.70;95752.19;29395;223;63009;-65
2021/12/27 02:18:44;;;;;;;0.50;0.50;;;;;;;5.12;95.50;95758.34;29395;220;63004;-55
2021/12/27 02:19:15;;;;;;;0.60;0.60;;;;;;;5.12;95.68;95752.97;29395;218;63008;-63
2021/12/27 02:19:53;;;;;;;0.60;0.60;;;;;;;5.11;95.49;95750.56;29395;262;63004;-65
2021/12/27 02:20:31;;;;;;;0.60;0.60;;;;;;;5.12;95.82;95763.72;29395;198;63009;-67
2021/12/27 02:21:02;;;;;;;0.60;0.60;;;;;;;5.17;95.72;95761.00;29394;216;64005;-64
2021/12/27 02:21:35;;;;;;;0.60;0.60;;;;;;;5.17;95.42;95766.38;29395;205;63009;-65
2021/12/27 02:22:07;;;;;;;0.50;0.50;;;;;;;5.16;95.29;95758.59;29395;302;63002;-65
2021/12/27 02:22:40;;;;;;;0.50;0.50;;;;;;;5.14;95.58;95761.56;29395;270;63009;-66
2021/12/27 02:23:17;;;;;;;0.50;0.50;;;;;;;5.13;95.50;95759.97;29395;207;63017;-65
2021/12/27 02:23:54;;;;;;;0.60;0.60;;;;;;;5.13;95.41;95757.25;29394;207;64009;-64
2021/12/27 02:24:25;;;;;;;0.60;0.60;;;;;;;5.14;95.43;95766.13;29395;227;63004;-64
2021/12/27 02:24:56;;;;;;;0.60;0.60;;;;;;;5.12;95.47;95761.03;29395;206;63009;-64
2021/12/27 02:25:30;;;;;;;0.60;0.60;;;;;;;5.14;95.57;95755.37;29395;243;63004;-65
2021/12/27 02:26:02;;;;;;;0.60;0.60;;;;;;;5.14;95.60;95763.44;29395;222;63004;-65
2021/12/27 02:26:33;;;;;;;0.60;0.60;;;;;;;5.13;95.78;95757.25;29395;262;63004;-65
2021/12/27 02:27:05;;;;;;;0.60;0.60;;;;;;;5.14;95.67;95758.88;29395;271;63009;-64
2021/12/27 02:27:37;;;;;;;0.60;0.60;;;;;;;5.19;95.26;95756.13;29395;215;63005;-66
2021/12/27 02:28:09;;;;;;;0.60;0.60;;;;;;;5.16;95.32;95756.69;29395;216;63009;-64
2021/12/27 02:28:41;;;;;;;0.60;0.60;;;;;;;5.15;95.28;95757.78;29394;258;64005;-65
2021/12/27 02:29:12;;;;;;;0.50;0.50;;;;;;;5.13;95.24;95754.56;29395;222;63009;-66
2021/12/27 02:29:43;;;;;;;0.60;0.60;;;;;;;5.13;94.98;95757.25;29395;222;63008;-65
2021/12/27 02:30:21;;;;;;;0.60;0.60;;;;;;;5.11;95.34;95759.44;29395;256;63009;-64
2021/12/27 02:30:54;;;;;;;0.60;0.60;;;;;;;5.10;95.43;95757.03;29395;265;63004;-65
2021/12/27 02:31:27;;;;;;;0.60;0.60;;;;;;;5.08;95.45;95753.81;29395;289;63017;-64
2021/12/27 02:31:59;;;;;;;0.60;0.60;;;;;;;5.07;95.23;95755.72;29395;218;63000;-65
2021/12/27 02:32:31;;;;;;;0.60;0.60;;;;;;;5.09;95.65;95750.84;29395;297;63009;-65
2021/12/27 02:33:06;;;;;;;0.60;0.60;;;;;;;5.07;95.35;95750.34;29395;290;63004;-64
2021/12/27 02:33:39;;;;;;;0.60;0.60;;;;;;;5.08;95.37;95754.63;29394;233;64008;-65
2021/12/27 02:34:10;;;;;;;0.60;0.60;;;;;;;5.07;95.55;95747.66;29395;204;63004;-64
2021/12/27 02:34:41;;;;;;;0.60;0.60;;;;;;;5.08;95.33;95753.81;29395;197;63012;-65
2021/12/27 02:35:25;;;;;;;0.60;0.60;;;;;;;5.07;95.36;95754.91;29395;241;63005;-67
2021/12/27 02:35:59;;;;;;;0.60;0.60;;;;;;;5.05;95.59;95758.69;29395;204;63009;-66
2021/12/27 02:36:30;;;;;;;0.60;0.60;;;;;;;5.04;95.33;95756.28;29395;203;63005;-65
2021/12/27 02:37:02;;;;;;;0.60;0.60;;;;;;;5.03;95.70;95754.69;29395;202;63016;-66
2021/12/27 02:37:33;;;;;;;0.60;0.60;;;;;;;5.02;95.46;95753.06;29395;198;63005;-65
2021/12/27 02:38:09;;;;;;;0.60;0.60;;;;;;;5.01;95.54;95751.47;29395;210;63005;-66
2021/12/27 02:38:44;;;;;;;0.60;0.60;;;;;;;4.99;95.90;95753.63;29394;227;64004;-64
2021/12/27 02:39:16;;;;;;;0.60;0.60;;;;;;;4.97;95.74;95751.22;29394;275;64009;-68
2021/12/27 02:39:47;;;;;;;0.60;0.60;;;;;;;4.97;96.05;95751.22;29395;222;63004;-66
2021/12/27 02:40:21;;;;;;;0.50;0.50;;;;;;;4.97;95.98;95750.44;29395;247;63009;-66
2021/12/27 02:40:53;;;;;;;0.50;0.50;;;;;;;4.99;96.01;95745.56;29395;236;63000;-66